createdAt,value
2023-02-24T00:01:37.735Z,23.95
2023-02-24T00:04:07.431Z,24.52
2023-02-24T00:06:36.902Z,25.25
2023-02-24T00:09:12.932Z,35.80
2023-02-24T00:11:44.003Z,34.83
2023-02-24T00:14:15.859Z,40.28
2023-02-24T00:16:44.344Z,70.03
2023-02-24T00:19:17.491Z,47.20
2023-02-24T00:21:44.907Z,46.47
2023-02-24T00:24:11.928Z,64.97
2023-02-24T00:26:38.891Z,70.07
2023-02-24T00:29:07.421Z,85.65
2023-02-24T00:31:34.399Z,77.32
2023-02-24T00:34:01.940Z,60.40
2023-02-24T00:36:30.449Z,70.25
2023-02-24T00:38:59.016Z,58.92
2023-02-24T00:41:31.268Z,49.80
2023-02-24T00:44:07.946Z,42.97
2023-02-24T00:46:37.215Z,45.80
2023-02-24T00:49:06.367Z,56.60
2023-02-24T00:51:38.391Z,40.72
2023-02-24T00:54:05.811Z,46.72
2023-02-24T00:56:32.705Z,47.45
2023-02-24T00:59:00.057Z,44.05
2023-02-24T01:01:32.263Z,52.20
2023-02-24T01:04:00.150Z,40.15
2023-02-24T01:06:29.267Z,40.67
2023-02-24T01:08:57.185Z,54.47
2023-02-24T01:11:47.506Z,48.03
2023-02-24T01:14:16.675Z,58.88
2023-02-24T01:16:50.540Z,48.50
2023-02-24T01:19:30.369Z,57.47
2023-02-24T01:22:02.515Z,38.78
2023-02-24T01:24:32.281Z,61.80
2023-02-24T01:26:58.978Z,56.10
2023-02-24T01:29:26.028Z,45.95
2023-02-24T01:31:58.530Z,61.72
2023-02-24T01:34:26.615Z,46.75
2023-02-24T01:36:53.741Z,35.30
2023-02-24T01:39:21.045Z,49.22
2023-02-24T01:41:50.181Z,40.35
2023-02-24T01:44:22.468Z,38.15
2023-02-24T01:46:51.770Z,44.55
2023-02-24T01:49:21.209Z,38.47
2023-02-24T01:51:52.192Z,39.83
2023-02-24T01:54:22.387Z,43.00
2023-02-24T01:56:52.787Z,47.15
2023-02-24T01:59:20.356Z,47.65
2023-02-24T02:01:48.428Z,82.82
2023-02-24T02:04:44.189Z,48.08
2023-02-24T02:07:16.635Z,43.47
2023-02-24T02:09:44.517Z,46.13
2023-02-24T02:12:11.838Z,53.55
2023-02-24T02:14:43.045Z,43.63
2023-02-24T02:17:12.642Z,52.78
2023-02-24T02:19:45.154Z,51.42
2023-02-24T02:22:17.020Z,41.30
2023-02-24T02:24:55.148Z,48.80
2023-02-24T02:27:59.998Z,43.75
2023-02-24T02:30:45.588Z,49.28
2023-02-24T02:33:21.616Z,49.00
2023-02-24T02:36:03.081Z,60.63
2023-02-24T02:38:38.553Z,53.05
2023-02-24T02:41:36.363Z,40.13
2023-02-24T02:44:21.471Z,38.70
2023-02-24T02:49:30.626Z,32.20
2023-02-24T02:52:14.022Z,29.38
2023-02-24T02:54:49.560Z,29.55
2023-02-24T02:57:25.242Z,28.15
2023-02-24T02:59:59.898Z,28.15
2023-02-24T03:04:58.591Z,22.60
2023-02-24T03:07:31.304Z,32.92
2023-02-24T03:10:10.521Z,35.00
2023-02-24T03:12:39.524Z,37.45
2023-02-24T03:15:09.272Z,35.40
2023-02-24T03:17:40.819Z,32.08
2023-02-24T03:20:18.276Z,26.02
2023-02-24T03:22:54.180Z,42.92
2023-02-24T03:25:24.742Z,39.88
2023-02-24T03:27:57.091Z,36.05
2023-02-24T03:30:30.864Z,47.15
2023-02-24T03:33:08.895Z,31.08
2023-02-24T03:35:40.599Z,38.30
2023-02-24T03:38:10.116Z,39.70
2023-02-24T03:40:43.251Z,45.38
2023-02-24T03:43:26.241Z,36.90
2023-02-24T03:45:53.816Z,34.10
2023-02-24T03:48:20.710Z,46.90
2023-02-24T03:50:47.546Z,44.67
2023-02-24T03:53:40.809Z,33.95
2023-02-24T03:56:29.364Z,45.80
2023-02-24T03:59:13.067Z,35.17
2023-02-24T04:02:04.228Z,44.92
2023-02-24T04:04:38.052Z,51.67
2023-02-24T04:07:28.389Z,46.67
2023-02-24T04:10:10.463Z,51.72
2023-02-24T04:12:46.993Z,40.20
2023-02-24T04:15:39.737Z,50.00
2023-02-24T04:18:12.558Z,36.72
2023-02-24T04:20:40.243Z,43.50
2023-02-24T04:23:11.458Z,37.35
2023-02-24T04:25:39.759Z,35.33
2023-02-24T04:28:10.157Z,36.85
2023-02-24T04:30:42.269Z,51.20
2023-02-24T04:33:10.071Z,53.90
2023-02-24T04:35:37.860Z,45.42
2023-02-24T04:38:05.340Z,53.45
2023-02-24T04:40:32.094Z,66.55
2023-02-24T04:42:58.966Z,66.90
2023-02-24T04:45:28.962Z,62.17
2023-02-24T04:48:00.971Z,65.65
2023-02-24T04:50:32.685Z,52.30
2023-02-24T04:53:09.364Z,53.70
2023-02-24T04:55:48.906Z,38.10
2023-02-24T04:58:28.867Z,37.55
2023-02-24T05:00:56.067Z,38.33
2023-02-24T05:03:28.215Z,37.53
2023-02-24T05:05:58.210Z,37.08
2023-02-24T05:08:26.287Z,46.63
2023-02-24T05:10:53.829Z,32.67
2023-02-24T05:13:28.135Z,27.52
2023-02-24T05:15:57.019Z,27.55
2023-02-24T05:18:24.258Z,32.38
2023-02-24T05:21:12.400Z,26.13
2023-02-24T05:23:44.380Z,27.52
2023-02-24T05:26:16.078Z,24.05
2023-02-24T05:28:46.798Z,31.40
2023-02-24T05:31:20.619Z,32.70
2023-02-24T05:33:50.602Z,26.73
2023-02-24T05:36:18.945Z,24.55
2023-02-24T05:38:47.145Z,19.50
2023-02-24T05:41:18.865Z,23.50
2023-02-24T05:43:54.824Z,21.08
2023-02-24T05:46:28.208Z,30.65
2023-02-24T05:48:59.300Z,26.08
2023-02-24T05:51:28.107Z,27.88
2023-02-24T05:53:55.623Z,31.10
2023-02-24T05:56:25.343Z,42.15
2023-02-24T05:59:01.916Z,55.60
2023-02-24T06:01:30.583Z,38.20
2023-02-24T06:04:05.681Z,43.67
2023-02-24T06:06:42.734Z,44.83
2023-02-24T06:09:12.664Z,38.65
2023-02-24T06:11:43.325Z,37.40
2023-02-24T06:14:11.980Z,41.28
2023-02-24T06:16:41.026Z,27.35
2023-02-24T06:19:09.932Z,25.48
2023-02-24T06:21:41.292Z,27.27
2023-02-24T06:24:14.541Z,25.95
2023-02-24T06:26:43.392Z,24.52
2023-02-24T06:29:15.360Z,30.45
2023-02-24T06:31:43.794Z,37.45
2023-02-24T06:34:11.320Z,38.83
2023-02-24T06:36:38.298Z,29.50
2023-02-24T06:39:08.129Z,25.88
2023-02-24T06:41:38.002Z,26.05
2023-02-24T06:44:05.023Z,25.67
2023-02-24T06:46:31.771Z,23.98
2023-02-24T06:48:58.516Z,21.25
2023-02-24T06:51:30.079Z,18.67
2023-02-24T06:53:59.355Z,15.10
2023-02-24T06:56:27.136Z,14.10
2023-02-24T06:58:59.214Z,13.38
2023-02-24T07:01:28.732Z,13.25
2023-02-24T07:04:07.757Z,12.75
2023-02-24T07:06:38.291Z,11.77
2023-02-24T07:09:14.189Z,12.05
2023-02-24T07:11:46.598Z,11.75
2023-02-24T07:14:14.099Z,11.80
2023-02-24T07:16:45.151Z,12.27
2023-02-24T07:19:14.118Z,12.30
2023-02-24T07:21:52.699Z,12.27
2023-02-24T07:24:25.209Z,12.52
2023-02-24T07:26:56.799Z,11.88
2023-02-24T07:29:25.317Z,10.75
2023-02-24T07:31:55.400Z,11.02
2023-02-24T07:34:24.692Z,12.07
2023-02-24T07:36:55.425Z,13.38
2023-02-24T07:39:23.198Z,11.82
2023-02-24T07:41:51.864Z,12.82
2023-02-24T07:44:19.891Z,10.75
2023-02-24T07:46:48.888Z,11.98
2023-02-24T07:49:19.828Z,11.35
2023-02-24T07:51:53.024Z,13.15
2023-02-24T07:54:21.346Z,14.68
2023-02-24T07:56:56.379Z,18.75
2023-02-24T07:59:32.473Z,31.10
2023-02-24T08:02:00.480Z,34.65
2023-02-24T08:04:29.934Z,19.25
2023-02-24T08:06:58.859Z,21.55
2023-02-24T08:09:46.560Z,21.20
2023-02-24T08:12:21.143Z,28.75
2023-02-24T08:14:53.321Z,25.50
2023-02-24T08:17:26.417Z,17.65
2023-02-24T08:20:15.612Z,21.25
2023-02-24T08:22:47.210Z,18.73
2023-02-24T08:25:18.875Z,22.77
2023-02-24T08:28:06.871Z,19.17
2023-02-24T08:30:38.861Z,15.93
2023-02-24T08:33:08.082Z,15.65
2023-02-24T08:35:36.802Z,16.23
2023-02-24T08:38:14.271Z,14.85
2023-02-24T08:40:58.587Z,13.32
2023-02-24T08:43:30.290Z,14.40
2023-02-24T08:46:13.204Z,13.80
2023-02-24T08:48:48.484Z,13.02
2023-02-24T08:51:22.508Z,12.13
2023-02-24T08:53:54.142Z,12.60
2023-02-24T08:56:29.950Z,12.93
2023-02-24T08:59:05.241Z,13.35
2023-02-24T09:01:37.714Z,17.80
2023-02-24T09:04:10.497Z,15.85
2023-02-24T09:06:44.067Z,15.73
2023-02-24T09:09:22.901Z,16.40
2023-02-24T09:11:55.759Z,17.05
2023-02-24T09:14:28.470Z,15.43
2023-02-24T09:17:04.097Z,16.08
2023-02-24T09:19:51.726Z,16.42
2023-02-24T09:22:40.954Z,16.27
2023-02-24T09:25:24.358Z,17.55
2023-02-24T09:28:07.887Z,15.80
2023-02-24T09:30:53.202Z,16.52
2023-02-24T09:33:21.724Z,14.80
2023-02-24T09:36:09.483Z,16.85
2023-02-24T09:38:59.892Z,16.08
2023-02-24T09:41:56.924Z,16.20
2023-02-24T09:44:36.743Z,18.77
2023-02-24T09:47:17.196Z,15.90
2023-02-24T09:49:50.696Z,18.60
2023-02-24T09:52:18.419Z,19.85
2023-02-24T09:55:12.751Z,19.58
2023-02-24T09:58:12.930Z,20.65
2023-02-24T10:00:44.261Z,20.00
2023-02-24T10:03:20.271Z,20.10
2023-02-24T10:06:12.274Z,19.23
2023-02-24T10:08:46.402Z,19.75
2023-02-24T10:11:14.273Z,18.83
2023-02-24T10:13:54.225Z,19.65
2023-02-24T10:16:23.961Z,19.58
2023-02-24T10:19:17.705Z,19.13
2023-02-24T10:22:03.267Z,18.73
2023-02-24T10:24:47.313Z,18.15
2023-02-24T10:27:25.037Z,17.48
2023-02-24T10:30:11.422Z,17.95
2023-02-24T10:32:41.905Z,15.20
2023-02-24T10:35:16.463Z,14.43
2023-02-24T10:37:43.768Z,15.02
2023-02-24T10:40:12.956Z,16.50
2023-02-24T10:42:48.821Z,17.40
2023-02-24T10:45:21.496Z,16.20
2023-02-24T10:47:57.278Z,15.50
2023-02-24T10:50:26.209Z,16.58
2023-02-24T10:52:57.331Z,16.02
2023-02-24T10:55:42.994Z,16.02
2023-02-24T10:58:56.879Z,18.17
2023-02-24T11:01:46.250Z,17.50
2023-02-24T11:04:28.051Z,19.48
2023-02-24T11:07:33.461Z,20.13
2023-02-24T11:10:13.691Z,21.33
2023-02-24T11:13:09.971Z,22.05
2023-02-24T11:16:16.029Z,19.88
2023-02-24T11:18:46.964Z,20.23
2023-02-24T11:21:14.445Z,22.45
2023-02-24T11:23:45.021Z,17.52
2023-02-24T11:26:31.233Z,16.83
2023-02-24T11:29:25.711Z,15.15
2023-02-24T11:32:30.538Z,14.20
2023-02-24T11:35:11.648Z,14.07
2023-02-24T11:37:46.019Z,14.02
2023-02-24T11:40:18.887Z,13.02
2023-02-24T11:42:50.359Z,13.27
2023-02-24T11:45:41.080Z,13.18
2023-02-24T11:48:17.433Z,12.38
2023-02-24T11:50:58.278Z,11.98
2023-02-24T11:53:27.713Z,11.63
2023-02-24T11:56:05.175Z,11.45
2023-02-24T11:58:46.601Z,11.23
2023-02-24T12:01:44.941Z,11.27
2023-02-24T12:04:28.617Z,10.07
2023-02-24T12:07:14.719Z,11.60
2023-02-24T12:09:50.929Z,11.02
2023-02-24T12:12:30.720Z,11.65
2023-02-24T12:15:00.622Z,11.02
2023-02-24T12:17:47.156Z,11.23
2023-02-24T12:21:01.037Z,10.02
2023-02-24T12:23:28.284Z,9.75
2023-02-24T12:26:15.652Z,9.85
2023-02-24T12:29:20.129Z,9.60
2023-02-24T12:32:04.801Z,9.05
2023-02-24T12:35:14.011Z,9.00
2023-02-24T12:37:53.258Z,9.45
2023-02-24T12:40:42.079Z,9.85
2023-02-24T12:43:31.857Z,10.32
2023-02-24T12:46:22.539Z,9.70
2023-02-24T12:49:28.666Z,10.65
2023-02-24T12:55:00.004Z,10.43
2023-02-24T12:57:57.803Z,11.20
2023-02-24T13:00:43.346Z,10.32
2023-02-24T13:03:23.571Z,11.32
2023-02-24T13:05:56.358Z,9.43
2023-02-24T13:08:37.853Z,10.60
2023-02-24T13:11:25.185Z,8.85
2023-02-24T13:14:12.211Z,10.43
2023-02-24T13:16:39.544Z,10.88
2023-02-24T13:19:26.491Z,11.20
2023-02-24T13:22:08.791Z,10.02
2023-02-24T13:24:36.816Z,9.90
2023-02-24T13:27:12.649Z,10.43
2023-02-24T13:29:57.801Z,10.13
2023-02-24T13:32:34.635Z,10.18
2023-02-24T13:35:15.505Z,11.68
2023-02-24T13:37:45.078Z,10.85
2023-02-24T13:40:23.712Z,11.90
2023-02-24T13:42:56.328Z,11.10
2023-02-24T13:45:25.559Z,11.73
2023-02-24T13:48:13.984Z,12.18
2023-02-24T13:51:01.324Z,11.73
2023-02-24T13:53:37.043Z,11.05
2023-02-24T13:56:45.643Z,11.48
2023-02-24T13:59:26.623Z,12.80
2023-02-24T14:02:14.391Z,14.50
2023-02-24T14:04:50.412Z,12.40
2023-02-24T14:07:25.659Z,13.20
2023-02-24T14:09:58.765Z,12.48
2023-02-24T14:12:28.078Z,13.30
2023-02-24T14:14:55.658Z,12.43
2023-02-24T14:17:30.994Z,12.70
2023-02-24T14:20:09.782Z,12.95
2023-02-24T14:22:44.579Z,12.90
2023-02-24T14:27:39.201Z,13.60
2023-02-24T14:30:08.048Z,15.23
2023-02-24T14:32:35.208Z,14.65
2023-02-24T14:35:02.062Z,16.75
2023-02-24T14:37:30.708Z,16.80
2023-02-24T14:39:59.650Z,16.27
2023-02-24T14:42:28.020Z,16.92
2023-02-24T14:44:57.685Z,16.05
2023-02-24T14:47:27.895Z,17.73
2023-02-24T14:49:59.314Z,16.63
2023-02-24T14:52:34.163Z,16.52
2023-02-24T14:55:18.011Z,16.50
2023-02-24T14:57:47.908Z,15.70
2023-02-24T15:00:24.749Z,15.48
2023-02-24T15:03:02.144Z,16.13
2023-02-24T15:05:29.124Z,17.30
2023-02-24T15:07:56.036Z,15.18
2023-02-24T15:10:25.478Z,16.27
2023-02-24T15:13:06.253Z,16.50
2023-02-24T15:15:38.422Z,16.70
2023-02-24T15:18:24.573Z,17.85
2023-02-24T15:21:00.857Z,17.98
2023-02-24T15:23:32.525Z,17.17
2023-02-24T15:25:59.620Z,16.20
2023-02-24T15:28:33.264Z,17.27
2023-02-24T15:31:08.518Z,17.40
2023-02-24T15:34:00.401Z,17.42
2023-02-24T15:36:32.263Z,18.63
2023-02-24T15:39:04.118Z,17.95
2023-02-24T15:41:42.646Z,18.83
2023-02-24T15:44:30.070Z,18.35
2023-02-24T15:46:58.274Z,20.88
2023-02-24T15:49:25.224Z,21.92
2023-02-24T15:51:53.665Z,21.38
2023-02-24T15:54:30.768Z,22.23
2023-02-24T15:57:02.091Z,22.98
2023-02-24T15:59:29.625Z,23.70
2023-02-24T16:01:56.689Z,23.80
2023-02-24T16:04:24.026Z,23.55
2023-02-24T16:06:56.936Z,25.35
2023-02-24T16:09:32.516Z,24.02
2023-02-24T16:11:59.409Z,22.70
2023-02-24T16:14:26.310Z,23.20
2023-02-24T16:16:53.127Z,24.08
2023-02-24T16:19:19.857Z,21.20
2023-02-24T16:21:46.511Z,21.73
2023-02-24T16:24:13.253Z,20.17
2023-02-24T16:26:40.505Z,20.00
2023-02-24T16:29:11.567Z,18.98
2023-02-24T16:31:39.533Z,18.83
2023-02-24T16:34:07.077Z,20.27
2023-02-24T16:36:34.414Z,17.17
2023-02-24T16:39:01.211Z,17.15
2023-02-24T16:41:28.004Z,15.73
2023-02-24T16:43:54.721Z,16.55
2023-02-24T16:46:22.991Z,16.70
2023-02-24T16:48:53.193Z,15.27
2023-02-24T16:51:20.438Z,14.68
2023-02-24T16:53:47.177Z,14.75
2023-02-24T16:56:15.178Z,15.15
2023-02-24T16:58:42.001Z,15.85
2023-02-24T17:01:09.585Z,15.77
2023-02-24T17:03:47.355Z,15.82
2023-02-24T17:06:14.155Z,16.88
2023-02-24T17:08:45.976Z,16.48
2023-02-24T17:11:14.794Z,16.70
2023-02-24T17:13:41.868Z,17.15
2023-02-24T17:16:08.541Z,17.85
2023-02-24T17:18:35.558Z,17.13
2023-02-24T17:21:03.458Z,17.63
2023-02-24T17:23:30.244Z,19.05
2023-02-24T17:25:59.922Z,16.95
2023-02-24T17:28:27.126Z,18.48
2023-02-24T17:30:53.915Z,17.48
2023-02-24T17:33:20.843Z,16.58
2023-02-24T17:35:48.142Z,16.02
2023-02-24T17:38:17.343Z,14.30
2023-02-24T17:40:44.937Z,14.90
2023-02-24T17:43:12.028Z,14.95
2023-02-24T17:45:43.022Z,14.27
2023-02-24T17:48:10.201Z,13.80
2023-02-24T17:50:37.029Z,14.07
2023-02-24T17:53:03.841Z,13.57
2023-02-24T17:55:30.480Z,14.32
2023-02-24T17:57:59.677Z,14.88
2023-02-24T18:00:26.972Z,15.40
2023-02-24T18:02:54.515Z,14.68
2023-02-24T18:05:21.311Z,15.70
2023-02-24T18:07:48.030Z,14.85
2023-02-24T18:10:14.716Z,15.55
2023-02-24T18:12:41.398Z,14.38
2023-02-24T18:15:09.620Z,15.52
2023-02-24T18:17:37.977Z,15.02
2023-02-24T18:20:06.792Z,15.65
2023-02-24T18:22:33.775Z,15.23
2023-02-24T18:25:01.102Z,15.57
2023-02-24T18:27:28.069Z,14.65
2023-02-24T18:29:54.905Z,16.73
2023-02-24T18:32:22.030Z,16.33
2023-02-24T18:34:48.905Z,15.75
2023-02-24T18:37:15.588Z,16.75
2023-02-24T18:39:42.289Z,16.52
2023-02-24T18:42:09.591Z,16.35
2023-02-24T18:44:36.286Z,16.35
2023-02-24T18:47:09.176Z,17.50
2023-02-24T18:49:36.876Z,17.77
2023-02-24T18:52:05.251Z,17.38
2023-02-24T18:54:33.623Z,17.83
2023-02-24T18:57:00.464Z,16.52
2023-02-24T18:59:27.196Z,16.73
2023-02-24T19:01:56.585Z,16.45
2023-02-24T19:04:24.109Z,17.20
2023-02-24T19:06:50.850Z,17.30
2023-02-24T19:09:21.496Z,16.70
2023-02-24T19:11:49.538Z,16.90
2023-02-24T19:14:16.314Z,15.82
2023-02-24T19:16:43.261Z,16.75
2023-02-24T19:19:13.816Z,17.00
2023-02-24T19:21:40.673Z,16.73
2023-02-24T19:24:08.392Z,17.83
2023-02-24T19:26:35.324Z,17.83
2023-02-24T19:29:02.351Z,18.27
2023-02-24T19:31:31.140Z,17.58
2023-02-24T19:34:01.343Z,17.77
2023-02-24T19:36:29.791Z,17.13
2023-02-24T19:38:56.512Z,18.65
2023-02-24T19:41:23.269Z,18.33
2023-02-24T19:43:49.985Z,18.75
2023-02-24T19:46:17.367Z,21.15
2023-02-24T19:48:44.317Z,19.63
2023-02-24T19:51:17.186Z,19.65
2023-02-24T19:53:44.512Z,20.23
2023-02-24T19:56:11.393Z,18.40
2023-02-24T19:58:39.145Z,18.50
2023-02-24T20:01:09.606Z,19.02
2023-02-24T20:03:38.325Z,20.88
2023-02-24T20:06:05.655Z,20.52
2023-02-24T20:08:34.767Z,20.13
2023-02-24T20:11:03.538Z,21.65
2023-02-24T20:13:30.421Z,18.80
2023-02-24T20:16:08.848Z,18.75
2023-02-24T20:18:35.573Z,20.13
2023-02-24T20:21:02.578Z,18.75
2023-02-24T20:23:29.908Z,19.35
2023-02-24T20:25:57.084Z,19.63
2023-02-24T20:28:24.355Z,20.17
2023-02-24T20:30:51.458Z,19.23
2023-02-24T20:33:18.624Z,19.02
2023-02-24T20:35:48.546Z,18.80
2023-02-24T20:38:15.664Z,19.08
2023-02-24T20:40:42.670Z,19.60
2023-02-24T20:43:10.160Z,19.98
2023-02-24T20:45:38.605Z,19.10
2023-02-24T20:48:06.600Z,16.45
2023-02-24T20:50:34.222Z,17.80
2023-02-24T20:53:03.365Z,16.77
2023-02-24T20:55:30.605Z,17.95
2023-02-24T20:57:57.292Z,17.92
2023-02-24T21:00:24.340Z,18.30
2023-02-24T21:02:51.162Z,17.52
2023-02-24T21:05:23.648Z,16.75
2023-02-24T21:07:50.786Z,14.43
2023-02-24T21:10:18.641Z,14.18
2023-02-24T21:12:45.897Z,14.15
2023-02-24T21:15:12.676Z,15.32
2023-02-24T21:17:39.965Z,16.05
2023-02-24T21:20:11.145Z,17.25
2023-02-24T21:22:41.911Z,13.90
2023-02-24T21:25:12.727Z,14.98
2023-02-24T21:27:39.482Z,15.27
2023-02-24T21:30:07.825Z,13.30
2023-02-24T21:32:34.947Z,12.30
2023-02-24T21:35:02.207Z,13.85
2023-02-24T21:37:29.256Z,12.80
2023-02-24T21:39:55.924Z,14.40
2023-02-24T21:42:22.845Z,15.85
2023-02-24T21:44:51.079Z,16.38
2023-02-24T21:47:18.620Z,11.45
2023-02-24T21:49:46.186Z,6.63
2023-02-24T21:52:13.101Z,6.20
2023-02-24T21:54:40.119Z,6.07
2023-02-24T21:57:07.745Z,6.47
2023-02-24T21:59:34.458Z,5.90
2023-02-24T22:02:01.209Z,5.40
2023-02-24T22:04:28.117Z,5.65
2023-02-24T22:06:54.852Z,6.65
2023-02-24T22:09:21.727Z,7.30
2023-02-24T22:11:49.371Z,6.85
2023-02-24T22:14:16.317Z,6.95
2023-02-24T22:16:43.376Z,7.57
2023-02-24T22:19:10.882Z,8.93
2023-02-24T22:21:39.566Z,8.65
2023-02-24T22:24:06.650Z,8.48
2023-02-24T22:26:33.420Z,9.82
2023-02-24T22:29:01.021Z,10.73
2023-02-24T22:31:30.223Z,11.75
2023-02-24T22:33:57.433Z,11.10
2023-02-24T22:36:30.912Z,12.20
2023-02-24T22:38:59.405Z,11.93
2023-02-24T22:41:28.507Z,10.70
2023-02-24T22:43:55.383Z,10.85
2023-02-24T22:46:29.613Z,9.50
2023-02-24T22:48:57.435Z,9.02
2023-02-24T22:51:24.916Z,9.65
2023-02-24T22:53:52.352Z,10.15
2023-02-24T22:56:22.825Z,10.57
2023-02-24T22:58:49.984Z,10.70
2023-02-24T23:01:19.712Z,10.48
2023-02-24T23:03:46.628Z,10.25
2023-02-24T23:06:15.866Z,11.63
2023-02-24T23:08:44.644Z,12.45
2023-02-24T23:11:24.795Z,11.23
2023-02-24T23:13:51.804Z,12.38
2023-02-24T23:16:22.111Z,12.68
2023-02-24T23:18:50.826Z,11.18
2023-02-24T23:21:26.173Z,10.55
2023-02-24T23:23:56.778Z,10.70
2023-02-24T23:26:31.537Z,11.23
2023-02-24T23:31:25.333Z,10.35
2023-02-24T23:33:53.116Z,9.93
2023-02-24T23:36:19.814Z,10.93
2023-02-24T23:38:46.576Z,11.48
2023-02-24T23:41:13.646Z,12.23
2023-02-24T23:43:40.938Z,11.82
2023-02-24T23:46:12.501Z,10.93
2023-02-24T23:48:39.711Z,11.27
2023-02-24T23:51:12.841Z,10.77
2023-02-24T23:53:42.067Z,10.10
2023-02-24T23:56:15.656Z,9.90
2023-02-24T23:58:42.492Z,9.77
